SYN002 KSLC-KPDX
Flight info
| Callsign | SYN002 |
|---|---|
| Flight time | 1h 38m |
| Altitude | 36000 |
| Route | CGULL1 TWF ALKAL IMB JOTBA HHOOD6 |
| Aircraft | BCS3/M-SBDE2E3GIRWXY/LB1 |
Departure
| Time | 2026-05-04 03:58 |
|---|---|
| Airport | Salt Lake City International Airport (KSLC) |
Arrival
| Time | 2026-05-04 05:36 |
|---|---|
| Airport | Portland International Airport (KPDX) |
| Time | Latitude | Longitude | Altitude | Speed | Heading |
|---|---|---|---|---|---|
| 2026-05-04 03:37 | 40.78957 | -111.95786 | 4236 ft | 0 kts | 1° |
| 2026-05-04 03:49 | 40.78956 | -111.95786 | 4236 ft | 2 kts | 1° |
| 2026-05-04 03:49 | 40.78939 | -111.95787 | 4235 ft | 2 kts | 1° |
| 2026-05-04 03:49 | 40.78922 | -111.95787 | 4235 ft | 2 kts | 1° |
| 2026-05-04 03:49 | 40.78905 | -111.95787 | 4235 ft | 3 kts | 9° |
| 2026-05-04 03:50 | 40.78888 | -111.95795 | 4235 ft | 2 kts | 38° |
| 2026-05-04 03:50 | 40.78877 | -111.95811 | 4236 ft | 2 kts | 65° |
| 2026-05-04 03:50 | 40.78872 | -111.95831 | 4234 ft | 2 kts | 91° |
| 2026-05-04 03:50 | 40.78875 | -111.95852 | 4237 ft | 2 kts | 116° |
| 2026-05-04 03:51 | 40.78882 | -111.95867 | 4237 ft | 0 kts | 139° |
| 2026-05-04 03:51 | 40.78872 | -111.95858 | 4235 ft | 4 kts | 155° |
| 2026-05-04 03:51 | 40.78823 | -111.95847 | 4237 ft | 10 kts | 180° |
| 2026-05-04 03:52 | 40.78729 | -111.95847 | 4236 ft | 17 kts | 180° |
| 2026-05-04 03:52 | 40.78591 | -111.95857 | 4235 ft | 22 kts | 194° |
| 2026-05-04 03:52 | 40.78487 | -111.95867 | 4233 ft | 23 kts | 183° |
| 2026-05-04 03:52 | 40.78323 | -111.95875 | 4232 ft | 24 kts | 181° |
| 2026-05-04 03:53 | 40.78158 | -111.95883 | 4232 ft | 23 kts | 182° |
| 2026-05-04 03:53 | 40.77991 | -111.95925 | 4234 ft | 11 kts | 179° |
| 2026-05-04 03:53 | 40.77976 | -111.95925 | 4234 ft | 0 kts | 179° |
| 2026-05-04 03:53 | 40.77974 | -111.95925 | 4234 ft | 0 kts | 179° |
| 2026-05-04 03:54 | 40.77971 | -111.95925 | 4234 ft | 1 kts | 179° |
| 2026-05-04 03:54 | 40.77956 | -111.95925 | 4234 ft | 6 kts | 179° |
| 2026-05-04 03:54 | 40.77893 | -111.95941 | 4234 ft | 10 kts | 218° |
| 2026-05-04 03:54 | 40.77829 | -111.96026 | 4236 ft | 16 kts | 210° |
| 2026-05-04 03:55 | 40.77705 | -111.96051 | 4241 ft | 21 kts | 182° |
| 2026-05-04 03:55 | 40.77547 | -111.96051 | 4241 ft | 23 kts | 180° |
| 2026-05-04 03:55 | 40.77410 | -111.96055 | 4242 ft | 15 kts | 178° |
| 2026-05-04 03:55 | 40.77370 | -111.96053 | 4242 ft | 2 kts | 179° |
| 2026-05-04 03:56 | 40.77345 | -111.96055 | 4241 ft | 6 kts | 185° |
| 2026-05-04 03:56 | 40.77283 | -111.96099 | 4240 ft | 10 kts | 241° |
| 2026-05-04 03:56 | 40.77287 | -111.96188 | 4239 ft | 5 kts | 298° |
| 2026-05-04 03:56 | 40.77320 | -111.96201 | 4239 ft | 14 kts | 349° |
| 2026-05-04 03:57 | 40.77545 | -111.96206 | 4241 ft | 56 kts | 359° |
| 2026-05-04 03:57 | 40.78091 | -111.96211 | 4232 ft | 100 kts | 359° |
| 2026-05-04 03:57 | 40.78915 | -111.96203 | 4239 ft | 135 kts | 0° |
| 2026-05-04 03:57 | 40.79877 | -111.96214 | 4588 ft | 138 kts | 359° |
| 2026-05-04 03:58 | 40.81971 | -111.96318 | 5147 ft | 159 kts | 358° |
| 2026-05-04 03:58 | 40.83102 | -111.96319 | 5545 ft | 163 kts | 360° |
| 2026-05-04 03:58 | 40.84251 | -111.96312 | 6011 ft | 167 kts | 355° |
| 2026-05-04 03:59 | 40.85302 | -111.96900 | 6421 ft | 172 kts | 319° |
| 2026-05-04 03:59 | 40.85910 | -111.98226 | 6992 ft | 170 kts | 284° |
| 2026-05-04 03:59 | 40.86154 | -111.99774 | 7508 ft | 172 kts | 280° |
| 2026-05-04 03:59 | 40.86385 | -112.01386 | 7867 ft | 186 kts | 280° |
| 2026-05-04 04:00 | 40.86635 | -112.03125 | 8208 ft | 200 kts | 280° |
| 2026-05-04 04:00 | 40.86912 | -112.04987 | 8536 ft | 213 kts | 283° |
| 2026-05-04 04:00 | 40.87613 | -112.06789 | 8831 ft | 229 kts | 304° |
| 2026-05-04 04:00 | 40.88563 | -112.08565 | 9128 ft | 244 kts | 305° |
| 2026-05-04 04:01 | 40.89585 | -112.10442 | 9336 ft | 261 kts | 305° |
| 2026-05-04 04:01 | 40.90674 | -112.12441 | 9629 ft | 275 kts | 305° |
| 2026-05-04 04:01 | 40.91821 | -112.14549 | 9844 ft | 289 kts | 305° |
| 2026-05-04 04:01 | 40.93007 | -112.16729 | 10239 ft | 294 kts | 305° |
| 2026-05-04 04:02 | 40.94231 | -112.18981 | 10353 ft | 309 kts | 305° |
| 2026-05-04 04:02 | 40.95512 | -112.21343 | 10421 ft | 322 kts | 305° |
| 2026-05-04 04:02 | 40.96828 | -112.23765 | 10719 ft | 325 kts | 305° |
| 2026-05-04 04:02 | 40.98150 | -112.26204 | 11042 ft | 326 kts | 305° |
| 2026-05-04 04:03 | 40.99474 | -112.28648 | 11364 ft | 327 kts | 305° |
| 2026-05-04 04:03 | 41.00805 | -112.31108 | 11689 ft | 329 kts | 305° |
| 2026-05-04 04:03 | 41.02138 | -112.33576 | 12000 ft | 330 kts | 304° |
| 2026-05-04 04:03 | 41.03473 | -112.36051 | 12316 ft | 331 kts | 304° |
| 2026-05-04 04:04 | 41.04818 | -112.38549 | 12840 ft | 333 kts | 304° |
| 2026-05-04 04:04 | 41.06163 | -112.41041 | 13537 ft | 335 kts | 306° |
| 2026-05-04 04:04 | 41.07865 | -112.43156 | 14154 ft | 338 kts | 322° |
| 2026-05-04 04:04 | 41.09819 | -112.44922 | 14750 ft | 341 kts | 326° |
| 2026-05-04 04:05 | 41.11823 | -112.46627 | 15339 ft | 344 kts | 326° |
| 2026-05-04 04:05 | 41.13856 | -112.48340 | 15942 ft | 347 kts | 326° |
| 2026-05-04 04:05 | 41.15876 | -112.50041 | 16524 ft | 350 kts | 326° |
| 2026-05-04 04:05 | 41.17890 | -112.51883 | 17115 ft | 353 kts | 322° |
| 2026-05-04 04:06 | 41.19851 | -112.53863 | 17694 ft | 356 kts | 321° |
| 2026-05-04 04:06 | 41.21829 | -112.55877 | 18258 ft | 360 kts | 321° |
| 2026-05-04 04:06 | 41.23818 | -112.57905 | 18779 ft | 362 kts | 321° |
| 2026-05-04 04:06 | 41.25829 | -112.59955 | 19289 ft | 366 kts | 321° |
| 2026-05-04 04:07 | 41.27813 | -112.62091 | 19781 ft | 368 kts | 315° |
| 2026-05-04 04:07 | 41.29592 | -112.64550 | 20298 ft | 370 kts | 311° |
| 2026-05-04 04:07 | 41.31336 | -112.67092 | 20789 ft | 374 kts | 311° |
| 2026-05-04 04:07 | 41.33092 | -112.69665 | 21302 ft | 376 kts | 311° |
| 2026-05-04 04:08 | 41.34857 | -112.72251 | 21783 ft | 379 kts | 311° |
| 2026-05-04 04:08 | 41.36636 | -112.74859 | 22245 ft | 383 kts | 311° |
| 2026-05-04 04:08 | 41.38435 | -112.77497 | 22714 ft | 385 kts | 311° |
| 2026-05-04 04:08 | 41.40241 | -112.80150 | 23174 ft | 388 kts | 311° |
| 2026-05-04 04:09 | 41.42029 | -112.82856 | 23576 ft | 391 kts | 310° |
| 2026-05-04 04:09 | 41.43823 | -112.85602 | 23934 ft | 393 kts | 310° |
| 2026-05-04 04:09 | 41.45618 | -112.88353 | 24288 ft | 396 kts | 310° |
| 2026-05-04 04:09 | 41.47430 | -112.91130 | 24675 ft | 398 kts | 310° |
| 2026-05-04 04:10 | 41.49251 | -112.93924 | 25014 ft | 400 kts | 310° |
| 2026-05-04 04:10 | 41.51084 | -112.96736 | 25362 ft | 402 kts | 310° |
| 2026-05-04 04:10 | 41.52924 | -112.99562 | 25691 ft | 404 kts | 310° |
| 2026-05-04 04:10 | 41.54772 | -113.02400 | 26031 ft | 406 kts | 310° |
| 2026-05-04 04:11 | 41.56627 | -113.05254 | 26367 ft | 408 kts | 310° |
| 2026-05-04 04:11 | 41.58494 | -113.08127 | 26696 ft | 410 kts | 310° |
| 2026-05-04 04:11 | 41.60340 | -113.10971 | 27010 ft | 411 kts | 310° |
| 2026-05-04 04:11 | 41.62218 | -113.13867 | 27329 ft | 413 kts | 310° |
| 2026-05-04 04:12 | 41.64102 | -113.16774 | 27637 ft | 415 kts | 310° |
| 2026-05-04 04:12 | 41.65995 | -113.19699 | 27921 ft | 416 kts | 310° |
| 2026-05-04 04:12 | 41.67889 | -113.22626 | 28218 ft | 418 kts | 310° |
| 2026-05-04 04:12 | 41.69794 | -113.25575 | 28503 ft | 419 kts | 310° |
| 2026-05-04 04:13 | 41.71704 | -113.28535 | 28780 ft | 421 kts | 310° |
| 2026-05-04 04:13 | 41.73618 | -113.31501 | 29057 ft | 422 kts | 310° |
| 2026-05-04 04:13 | 41.75539 | -113.34484 | 29299 ft | 423 kts | 310° |
| 2026-05-04 04:13 | 41.77463 | -113.37474 | 29557 ft | 425 kts | 310° |
| 2026-05-04 04:14 | 41.79390 | -113.40471 | 29820 ft | 425 kts | 310° |
| 2026-05-04 04:14 | 41.81324 | -113.43483 | 30036 ft | 426 kts | 310° |
| 2026-05-04 04:14 | 41.83258 | -113.46495 | 30220 ft | 427 kts | 310° |
| 2026-05-04 04:14 | 41.85200 | -113.49525 | 30428 ft | 428 kts | 310° |
| 2026-05-04 04:15 | 41.87140 | -113.52555 | 30620 ft | 429 kts | 310° |
| 2026-05-04 04:15 | 41.89084 | -113.55596 | 30756 ft | 430 kts | 310° |
| 2026-05-04 04:15 | 41.91032 | -113.58643 | 30948 ft | 431 kts | 310° |
| 2026-05-04 04:15 | 41.92989 | -113.61709 | 31108 ft | 432 kts | 310° |
| 2026-05-04 04:16 | 41.94942 | -113.64771 | 31251 ft | 433 kts | 310° |
| 2026-05-04 04:16 | 41.96903 | -113.67850 | 31415 ft | 434 kts | 310° |
| 2026-05-04 04:16 | 41.98865 | -113.70934 | 31549 ft | 434 kts | 310° |
| 2026-05-04 04:16 | 42.00831 | -113.74026 | 31688 ft | 435 kts | 309° |
| 2026-05-04 04:17 | 42.02799 | -113.77126 | 31805 ft | 436 kts | 310° |
| 2026-05-04 04:17 | 42.04770 | -113.80232 | 31938 ft | 437 kts | 309° |
| 2026-05-04 04:17 | 42.06744 | -113.83348 | 32063 ft | 438 kts | 309° |
| 2026-05-04 04:17 | 42.08723 | -113.86473 | 32170 ft | 439 kts | 309° |
| 2026-05-04 04:18 | 42.10702 | -113.89603 | 32285 ft | 439 kts | 309° |
| 2026-05-04 04:18 | 42.12682 | -113.92737 | 32420 ft | 439 kts | 309° |
| 2026-05-04 04:18 | 42.16645 | -113.99019 | 32602 ft | 441 kts | 309° |
| 2026-05-04 04:19 | 42.18751 | -114.01986 | 33046 ft | 433 kts | 319° |
| 2026-05-04 04:19 | 42.21282 | -114.03973 | 33636 ft | 424 kts | 337° |
| 2026-05-04 04:19 | 42.24033 | -114.05278 | 34164 ft | 416 kts | 342° |
| 2026-05-04 04:19 | 42.26894 | -114.05882 | 34253 ft | 421 kts | 1° |
| 2026-05-04 04:20 | 42.29767 | -114.05079 | 34409 ft | 425 kts | 21° |
| 2026-05-04 04:20 | 42.32258 | -114.02928 | 34532 ft | 429 kts | 43° |
| 2026-05-04 04:20 | 42.34010 | -113.99672 | 34624 ft | 434 kts | 65° |
| 2026-05-04 04:20 | 42.34778 | -113.95735 | 34735 ft | 436 kts | 87° |
| 2026-05-04 04:21 | 42.34446 | -113.91690 | 34806 ft | 436 kts | 109° |
| 2026-05-04 04:21 | 42.33042 | -113.88087 | 34920 ft | 434 kts | 130° |
| 2026-05-04 04:21 | 42.30985 | -113.85106 | 35025 ft | 434 kts | 138° |
| 2026-05-04 04:21 | 42.28751 | -113.82377 | 35141 ft | 434 kts | 141° |
| 2026-05-04 04:22 | 42.26448 | -113.79743 | 35260 ft | 434 kts | 142° |
| 2026-05-04 04:22 | 42.24112 | -113.77151 | 35351 ft | 435 kts | 142° |
| 2026-05-04 04:22 | 42.21761 | -113.74581 | 35466 ft | 435 kts | 143° |
| 2026-05-04 04:22 | 42.19395 | -113.72015 | 35559 ft | 436 kts | 143° |
| 2026-05-04 04:23 | 42.16888 | -113.69752 | 35629 ft | 433 kts | 158° |
| 2026-05-04 04:23 | 42.14031 | -113.68577 | 35733 ft | 430 kts | 171° |
| 2026-05-04 04:23 | 42.11067 | -113.68213 | 35806 ft | 428 kts | 184° |
| 2026-05-04 04:23 | 42.08150 | -113.68870 | 35820 ft | 426 kts | 201° |
| 2026-05-04 04:24 | 42.05570 | -113.70763 | 35837 ft | 424 kts | 220° |
| 2026-05-04 04:24 | 42.03630 | -113.73719 | 35835 ft | 424 kts | 240° |
| 2026-05-04 04:24 | 42.02562 | -113.77383 | 35831 ft | 420 kts | 259° |
| 2026-05-04 04:24 | 42.02503 | -113.81259 | 35816 ft | 415 kts | 279° |
| 2026-05-04 04:25 | 42.03455 | -113.84909 | 35823 ft | 418 kts | 299° |
| 2026-05-04 04:25 | 42.05315 | -113.87934 | 35827 ft | 425 kts | 319° |
| 2026-05-04 04:25 | 42.10273 | -113.92395 | 35823 ft | 431 kts | 322° |
| 2026-05-04 04:26 | 42.15016 | -113.97362 | 35797 ft | 429 kts | 319° |
| 2026-05-04 04:26 | 42.19930 | -114.01675 | 35808 ft | 427 kts | 343° |
| 2026-05-04 04:27 | 42.22860 | -114.02068 | 35822 ft | 435 kts | 4° |
| 2026-05-04 04:27 | 42.25782 | -114.00968 | 35819 ft | 442 kts | 26° |
| 2026-05-04 04:27 | 42.28250 | -113.98487 | 35831 ft | 449 kts | 47° |
| 2026-05-04 04:27 | 42.29928 | -113.94928 | 35834 ft | 453 kts | 69° |
| 2026-05-04 04:28 | 42.30571 | -113.90781 | 35842 ft | 453 kts | 90° |
| 2026-05-04 04:28 | 42.30097 | -113.86624 | 35833 ft | 446 kts | 111° |
| 2026-05-04 04:28 | 42.28584 | -113.83042 | 35836 ft | 438 kts | 133° |
| 2026-05-04 04:28 | 42.26248 | -113.80486 | 35830 ft | 433 kts | 155° |
| 2026-05-04 04:29 | 42.20770 | -113.77066 | 35809 ft | 439 kts | 153° |
| 2026-05-04 04:29 | 42.18033 | -113.75282 | 35794 ft | 436 kts | 166° |
| 2026-05-04 04:29 | 42.15066 | -113.74804 | 35809 ft | 426 kts | 187° |
| 2026-05-04 04:30 | 42.12245 | -113.75743 | 35816 ft | 416 kts | 207° |
| 2026-05-04 04:30 | 42.09896 | -113.77963 | 35824 ft | 413 kts | 228° |
| 2026-05-04 04:30 | 42.08316 | -113.81169 | 35821 ft | 414 kts | 248° |
| 2026-05-04 04:30 | 42.07707 | -113.84954 | 35833 ft | 418 kts | 269° |
| 2026-05-04 04:31 | 42.08159 | -113.88823 | 35823 ft | 423 kts | 289° |
| 2026-05-04 04:31 | 42.09629 | -113.92242 | 35823 ft | 426 kts | 310° |
| 2026-05-04 04:31 | 42.11892 | -113.94810 | 35831 ft | 425 kts | 323° |
| 2026-05-04 04:31 | 42.14314 | -113.97091 | 35815 ft | 425 kts | 322° |
| 2026-05-04 04:32 | 42.18884 | -114.02138 | 35804 ft | 425 kts | 308° |
| 2026-05-04 04:32 | 42.22648 | -114.08351 | 35807 ft | 430 kts | 307° |
| 2026-05-04 04:33 | 42.26502 | -114.14569 | 35811 ft | 434 kts | 308° |
| 2026-05-04 04:33 | 42.30419 | -114.20817 | 35824 ft | 437 kts | 308° |
| 2026-05-04 04:34 | 42.34333 | -114.27061 | 35851 ft | 439 kts | 308° |
| 2026-05-04 04:34 | 42.38235 | -114.33293 | 35866 ft | 430 kts | 308° |
| 2026-05-04 04:35 | 42.42105 | -114.39486 | 35901 ft | 433 kts | 308° |
| 2026-05-04 04:35 | 42.46002 | -114.45734 | 35896 ft | 436 kts | 308° |
| 2026-05-04 04:36 | 42.49959 | -114.51993 | 35897 ft | 438 kts | 309° |
| 2026-05-04 04:36 | 42.53958 | -114.58160 | 35889 ft | 432 kts | 309° |
| 2026-05-04 04:37 | 42.61924 | -114.70492 | 35851 ft | 437 kts | 309° |
| 2026-05-04 04:38 | 42.65925 | -114.76707 | 35824 ft | 434 kts | 309° |
| 2026-05-04 04:38 | 42.69885 | -114.82874 | 35851 ft | 434 kts | 309° |
| 2026-05-04 04:39 | 42.73859 | -114.89078 | 35853 ft | 437 kts | 308° |
| 2026-05-04 04:39 | 42.77846 | -114.95314 | 35861 ft | 435 kts | 308° |
| 2026-05-04 04:40 | 42.81801 | -115.01515 | 35862 ft | 434 kts | 308° |
| 2026-05-04 04:40 | 42.85769 | -115.07748 | 35847 ft | 436 kts | 308° |
| 2026-05-04 04:41 | 42.89737 | -115.13995 | 35826 ft | 434 kts | 308° |
| 2026-05-04 04:41 | 42.93682 | -115.20220 | 35811 ft | 434 kts | 308° |
| 2026-05-04 04:42 | 42.97641 | -115.26481 | 35796 ft | 436 kts | 308° |
| 2026-05-04 04:42 | 43.01487 | -115.32786 | 35796 ft | 432 kts | 301° |
| 2026-05-04 04:43 | 43.04475 | -115.39883 | 35806 ft | 431 kts | 296° |
| 2026-05-04 04:43 | 43.06892 | -115.45915 | 35812 ft | 432 kts | 296° |
| 2026-05-04 04:44 | 43.10239 | -115.54291 | 35817 ft | 431 kts | 296° |
| 2026-05-04 04:44 | 43.12644 | -115.60325 | 35821 ft | 431 kts | 296° |
| 2026-05-04 04:45 | 43.15514 | -115.67541 | 35830 ft | 432 kts | 296° |
| 2026-05-04 04:47 | 43.25524 | -115.92852 | 35821 ft | 431 kts | 296° |
| 2026-05-04 04:47 | 43.28349 | -116.00035 | 35810 ft | 431 kts | 295° |
| 2026-05-04 04:48 | 43.31192 | -116.07283 | 35810 ft | 431 kts | 295° |
| 2026-05-04 04:49 | 43.38360 | -116.25652 | 35829 ft | 443 kts | 299° |
| 2026-05-04 04:49 | 43.41286 | -116.33173 | 35831 ft | 448 kts | 299° |
| 2026-05-04 04:50 | 43.44228 | -116.40759 | 35837 ft | 451 kts | 299° |
| 2026-05-04 04:50 | 43.47189 | -116.48415 | 35847 ft | 454 kts | 299° |
| 2026-05-04 04:51 | 43.50154 | -116.56102 | 35847 ft | 454 kts | 299° |
| 2026-05-04 04:51 | 43.53088 | -116.63733 | 35845 ft | 448 kts | 299° |
| 2026-05-04 04:52 | 43.56010 | -116.71352 | 35839 ft | 451 kts | 299° |
| 2026-05-04 04:52 | 43.58949 | -116.79034 | 35838 ft | 454 kts | 299° |
| 2026-05-04 04:53 | 43.61892 | -116.86750 | 35831 ft | 453 kts | 299° |
| 2026-05-04 04:53 | 43.64804 | -116.94407 | 35829 ft | 450 kts | 299° |
| 2026-05-04 04:54 | 43.67722 | -117.02098 | 35827 ft | 454 kts | 299° |
| 2026-05-04 04:54 | 43.70650 | -117.09837 | 35825 ft | 454 kts | 299° |
| 2026-05-04 04:55 | 43.73556 | -117.17542 | 35832 ft | 451 kts | 299° |
| 2026-05-04 04:55 | 43.76457 | -117.25251 | 35836 ft | 453 kts | 299° |
| 2026-05-04 04:56 | 43.79365 | -117.33002 | 35838 ft | 453 kts | 299° |
| 2026-05-04 04:56 | 43.82239 | -117.40682 | 35844 ft | 451 kts | 299° |
| 2026-05-04 04:57 | 43.85126 | -117.48418 | 35846 ft | 454 kts | 299° |
| 2026-05-04 04:57 | 43.88015 | -117.56186 | 35851 ft | 452 kts | 299° |
| 2026-05-04 04:58 | 43.90881 | -117.63909 | 35859 ft | 451 kts | 299° |
| 2026-05-04 04:58 | 43.93753 | -117.71670 | 35865 ft | 453 kts | 299° |
| 2026-05-04 04:59 | 43.96619 | -117.79438 | 35870 ft | 451 kts | 299° |
| 2026-05-04 04:59 | 43.99469 | -117.87182 | 35879 ft | 451 kts | 299° |
| 2026-05-04 05:00 | 44.02323 | -117.94962 | 35883 ft | 452 kts | 299° |
| 2026-05-04 05:01 | 44.06588 | -118.06627 | 35892 ft | 450 kts | 299° |
| 2026-05-04 05:01 | 44.09425 | -118.14411 | 35895 ft | 452 kts | 299° |
| 2026-05-04 05:02 | 44.12264 | -118.22226 | 35898 ft | 452 kts | 299° |
| 2026-05-04 05:02 | 44.15089 | -118.30026 | 35897 ft | 451 kts | 299° |
| 2026-05-04 05:03 | 44.17893 | -118.37786 | 35907 ft | 452 kts | 299° |
| 2026-05-04 05:04 | 44.23532 | -118.53463 | 35914 ft | 451 kts | 299° |
| 2026-05-04 05:04 | 44.26341 | -118.61304 | 35917 ft | 453 kts | 299° |
| 2026-05-04 05:06 | 44.37552 | -118.92828 | 35915 ft | 453 kts | 298° |
| 2026-05-04 05:07 | 44.40334 | -119.00708 | 35910 ft | 452 kts | 298° |
| 2026-05-04 05:07 | 44.43115 | -119.08606 | 35906 ft | 454 kts | 298° |
| 2026-05-04 05:09 | 44.55561 | -119.44247 | 35905 ft | 452 kts | 298° |
| 2026-05-04 05:10 | 44.58330 | -119.52241 | 35905 ft | 454 kts | 298° |
| 2026-05-04 05:10 | 44.61067 | -119.60164 | 35907 ft | 454 kts | 298° |
| 2026-05-04 05:11 | 44.63814 | -119.68141 | 35905 ft | 453 kts | 298° |
| 2026-05-04 05:11 | 44.65426 | -119.71913 | 35901 ft | 449 kts | 309° |
| 2026-05-04 05:11 | 44.67419 | -119.75262 | 35903 ft | 447 kts | 315° |
| 2026-05-04 05:12 | 44.71636 | -119.81708 | 35895 ft | 448 kts | 316° |
| 2026-05-04 05:12 | 44.75838 | -119.88153 | 35904 ft | 446 kts | 315° |
| 2026-05-04 05:13 | 44.80027 | -119.94610 | 35902 ft | 447 kts | 315° |
| 2026-05-04 05:13 | 44.84221 | -120.01102 | 35886 ft | 448 kts | 315° |
| 2026-05-04 05:14 | 44.88394 | -120.07586 | 35895 ft | 446 kts | 315° |
| 2026-05-04 05:14 | 44.92580 | -120.14102 | 35480 ft | 456 kts | 315° |
| 2026-05-04 05:15 | 44.94729 | -120.17454 | 34713 ft | 463 kts | 315° |
| 2026-05-04 05:15 | 44.96882 | -120.20821 | 34153 ft | 460 kts | 315° |
| 2026-05-04 05:15 | 44.99022 | -120.24171 | 33504 ft | 459 kts | 315° |
| 2026-05-04 05:15 | 45.01156 | -120.27517 | 32897 ft | 456 kts | 315° |
| 2026-05-04 05:16 | 45.03267 | -120.30830 | 32313 ft | 452 kts | 315° |
| 2026-05-04 05:16 | 45.05361 | -120.34120 | 31710 ft | 449 kts | 315° |
| 2026-05-04 05:16 | 45.07443 | -120.37395 | 31124 ft | 446 kts | 315° |
| 2026-05-04 05:16 | 45.09511 | -120.40652 | 30528 ft | 443 kts | 315° |
| 2026-05-04 05:17 | 45.11565 | -120.43890 | 29952 ft | 441 kts | 315° |
| 2026-05-04 05:17 | 45.13606 | -120.47111 | 29311 ft | 437 kts | 315° |
| 2026-05-04 05:17 | 45.15623 | -120.50302 | 28760 ft | 432 kts | 314° |
| 2026-05-04 05:17 | 45.17320 | -120.53749 | 28178 ft | 432 kts | 303° |
| 2026-05-04 05:18 | 45.18800 | -120.57438 | 27607 ft | 429 kts | 302° |
| 2026-05-04 05:18 | 45.20251 | -120.61180 | 27031 ft | 426 kts | 301° |
| 2026-05-04 05:18 | 45.21665 | -120.64845 | 26475 ft | 422 kts | 301° |
| 2026-05-04 05:18 | 45.23047 | -120.68434 | 25920 ft | 419 kts | 301° |
| 2026-05-04 05:19 | 45.24437 | -120.72046 | 25375 ft | 415 kts | 301° |
| 2026-05-04 05:19 | 45.25814 | -120.75628 | 24824 ft | 413 kts | 301° |
| 2026-05-04 05:19 | 45.27185 | -120.79198 | 24278 ft | 410 kts | 301° |
| 2026-05-04 05:19 | 45.28545 | -120.82745 | 23740 ft | 408 kts | 301° |
| 2026-05-04 05:20 | 45.29896 | -120.86273 | 23158 ft | 406 kts | 301° |
| 2026-05-04 05:20 | 45.31236 | -120.89775 | 22624 ft | 401 kts | 301° |
| 2026-05-04 05:20 | 45.32557 | -120.93234 | 22103 ft | 396 kts | 301° |
| 2026-05-04 05:20 | 45.33863 | -120.96659 | 21580 ft | 392 kts | 301° |
| 2026-05-04 05:21 | 45.35156 | -121.00053 | 21054 ft | 388 kts | 301° |
| 2026-05-04 05:21 | 45.36432 | -121.03405 | 20557 ft | 384 kts | 300° |
| 2026-05-04 05:21 | 45.37693 | -121.06721 | 20054 ft | 380 kts | 300° |
| 2026-05-04 05:21 | 45.38761 | -121.10145 | 19559 ft | 377 kts | 292° |
| 2026-05-04 05:22 | 45.39610 | -121.13657 | 19056 ft | 375 kts | 290° |
| 2026-05-04 05:22 | 45.40428 | -121.17166 | 18565 ft | 371 kts | 290° |
| 2026-05-04 05:22 | 45.41236 | -121.20639 | 18072 ft | 368 kts | 290° |
| 2026-05-04 05:22 | 45.42036 | -121.24083 | 17554 ft | 365 kts | 290° |
| 2026-05-04 05:23 | 45.42829 | -121.27496 | 17091 ft | 362 kts | 290° |
| 2026-05-04 05:23 | 45.43616 | -121.30890 | 16796 ft | 356 kts | 290° |
| 2026-05-04 05:23 | 45.44385 | -121.34212 | 16828 ft | 356 kts | 290° |
| 2026-05-04 05:23 | 45.45175 | -121.37618 | 16852 ft | 365 kts | 290° |
| 2026-05-04 05:24 | 45.45964 | -121.41032 | 16599 ft | 362 kts | 290° |
| 2026-05-04 05:24 | 45.46769 | -121.44512 | 15225 ft | 378 kts | 289° |
| 2026-05-04 05:24 | 45.47609 | -121.48149 | 14341 ft | 385 kts | 289° |
| 2026-05-04 05:24 | 45.48439 | -121.51757 | 13665 ft | 381 kts | 289° |
| 2026-05-04 05:25 | 45.49251 | -121.55295 | 13119 ft | 369 kts | 289° |
| 2026-05-04 05:25 | 45.50031 | -121.58699 | 12688 ft | 353 kts | 289° |
| 2026-05-04 05:25 | 45.50778 | -121.61966 | 12233 ft | 341 kts | 289° |
| 2026-05-04 05:25 | 45.51499 | -121.65123 | 11794 ft | 329 kts | 289° |
| 2026-05-04 05:26 | 45.52196 | -121.68178 | 11367 ft | 319 kts | 289° |
| 2026-05-04 05:26 | 45.52824 | -121.71160 | 10940 ft | 311 kts | 281° |
| 2026-05-04 05:26 | 45.53066 | -121.74177 | 10546 ft | 302 kts | 275° |
| 2026-05-04 05:26 | 45.53198 | -121.77135 | 10152 ft | 295 kts | 274° |
| 2026-05-04 05:27 | 45.53317 | -121.80021 | 9763 ft | 289 kts | 274° |
| 2026-05-04 05:28 | 45.54107 | -121.99641 | 7118 ft | 270 kts | 274° |
| 2026-05-04 05:29 | 45.54211 | -122.02290 | 6760 ft | 264 kts | 274° |
| 2026-05-04 05:29 | 45.54317 | -122.04858 | 6556 ft | 254 kts | 274° |
| 2026-05-04 05:29 | 45.54444 | -122.07314 | 6235 ft | 249 kts | 275° |
| 2026-05-04 05:29 | 45.54578 | -122.09798 | 5815 ft | 250 kts | 275° |
| 2026-05-04 05:31 | 45.55522 | -122.26426 | 4538 ft | 242 kts | 276° |
| 2026-05-04 05:31 | 45.55663 | -122.28817 | 4216 ft | 241 kts | 276° |
| 2026-05-04 05:32 | 45.55803 | -122.31189 | 3891 ft | 240 kts | 276° |
| 2026-05-04 05:32 | 45.55942 | -122.33561 | 3571 ft | 240 kts | 276° |
| 2026-05-04 05:32 | 45.56033 | -122.35134 | 3294 ft | 241 kts | 276° |
| 2026-05-04 05:33 | 45.56385 | -122.39944 | 2468 ft | 230 kts | 278° |
| 2026-05-04 05:33 | 45.56550 | -122.42080 | 2153 ft | 207 kts | 278° |
| 2026-05-04 05:33 | 45.56676 | -122.44032 | 1929 ft | 187 kts | 272° |
| 2026-05-04 05:33 | 45.56564 | -122.46291 | 1782 ft | 161 kts | 266° |
| 2026-05-04 05:34 | 45.56451 | -122.47834 | 1555 ft | 152 kts | 266° |
| 2026-05-04 05:34 | 45.56372 | -122.48829 | 1449 ft | 148 kts | 265° |
| 2026-05-04 05:34 | 45.56217 | -122.50273 | 1265 ft | 148 kts | 263° |
| 2026-05-04 05:34 | 45.56049 | -122.51720 | 1059 ft | 146 kts | 263° |
| 2026-05-04 05:35 | 45.56086 | -122.53119 | 885 ft | 139 kts | 285° |
| 2026-05-04 05:35 | 45.56466 | -122.54354 | 714 ft | 136 kts | 300° |
| 2026-05-04 05:35 | 45.56939 | -122.55530 | 481 ft | 136 kts | 299° |
| 2026-05-04 05:35 | 45.57390 | -122.56692 | 317 ft | 131 kts | 297° |
| 2026-05-04 05:36 | 45.57829 | -122.57821 | 161 ft | 130 kts | 298° |
| 2026-05-04 05:36 | 45.58263 | -122.58925 | 35 ft | 110 kts | 299° |
| 2026-05-04 05:36 | 45.58548 | -122.59672 | 38 ft | 58 kts | 299° |
| 2026-05-04 05:36 | 45.58629 | -122.59779 | 39 ft | 1 kts | 27° |
| 2026-05-04 05:37 | 45.58645 | -122.59765 | 38 ft | 5 kts | 37° |
| 2026-05-04 05:37 | 45.58697 | -122.59707 | 38 ft | 13 kts | 38° |
| 2026-05-04 05:37 | 45.58789 | -122.59614 | 37 ft | 18 kts | 41° |
| 2026-05-04 05:38 | 45.58815 | -122.59586 | 35 ft | 0 kts | 37° |